Time;durP1;ratioP1;P1;durP2;ratioP2;P2;SDS_P1;SDS_P2;PMS_P1;PMS_P2;Temp;Humidity;BMP_temperature;BMP_pressure;BME280_temperature;BME280_humidity;BME280_pressure;Samples;Min_cycle;Max_cycle;Signal;HPM_P1;HPM_P2
2022/03/05 00:02:02;;;;;;;6.60;4.00;;;;;;;;;;5064168;28;20040;-74
2022/03/05 00:04:28;;;;;;;6.30;3.97;;;;;;;;;;5058848;28;20626;-74
2022/03/05 00:06:55;;;;;;;6.18;3.53;;;;;;;;;;5050268;28;20025;-75
2022/03/05 00:09:21;;;;;;;6.60;3.65;;;;;;;;;;5062829;28;20108;-74
2022/03/05 00:11:47;;;;;;;5.15;3.60;;;;;;;;;;5060080;28;20472;-73
2022/03/05 00:14:15;;;;;;;5.55;3.13;;;;;;;;;;5060904;28;20056;-75
2022/03/05 00:16:41;;;;;;;6.47;3.97;;;;;;;;;;5061081;28;20059;-74
2022/03/05 00:19:07;;;;;;;5.75;4.38;;;;;;;;;;5062953;28;20047;-74
2022/03/05 00:21:33;;;;;;;5.90;3.88;;;;;;;;;;5060853;28;20453;-75
2022/03/05 00:23:59;;;;;;;4.38;3.78;;;;;;;;;;5062854;28;20029;-75
2022/03/05 00:26:26;;;;;;;4.32;3.00;;;;;;;;;;5065607;28;20384;-75
2022/03/05 00:28:52;;;;;;;5.70;2.78;;;;;;;;;;5057174;28;20055;-74
2022/03/05 00:31:18;;;;;;;3.45;2.47;;;;;;;;;;5058148;28;20029;-74
2022/03/05 00:33:44;;;;;;;5.40;3.22;;;;;;;;;;5061304;28;20030;-74
2022/03/05 00:36:10;;;;;;;4.20;2.40;;;;;;;;;;5060085;28;20033;-74
2022/03/05 00:38:36;;;;;;;5.70;3.10;;;;;;;;;;5057377;28;20063;-74
2022/03/05 00:41:03;;;;;;;4.43;2.75;;;;;;;;;;5064210;28;20020;-74
2022/03/05 00:43:29;;;;;;;4.20;2.50;;;;;;;;;;5059317;28;20031;-75
2022/03/05 00:45:55;;;;;;;6.25;2.20;;;;;;;;;;5062379;28;20027;-75
2022/03/05 00:48:21;;;;;;;11.10;7.35;;;;;;;;;;5062596;28;20032;-74
2022/03/05 00:50:48;;;;;;;11.10;7.78;;;;;;;;;;5056482;28;20021;-74
2022/03/05 00:53:17;;;;;;;12.40;8.68;;;;;;;;;;5065603;28;20027;-74
2022/03/05 00:55:43;;;;;;;9.57;7.20;;;;;;;;;;5060326;28;20043;-75
2022/03/05 00:58:09;;;;;;;10.23;7.07;;;;;;;;;;5060103;28;20023;-74
2022/03/05 01:00:35;;;;;;;8.82;5.85;;;;;;;;;;5058185;28;20021;-73
2022/03/05 01:03:02;;;;;;;9.57;5.13;;;;;;;;;;5053136;28;20041;-74
2022/03/05 01:05:28;;;;;;;5.80;4.70;;;;;;;;;;5058992;28;20027;-75
2022/03/05 01:07:55;;;;;;;7.93;4.22;;;;;;;;;;5060898;28;20029;-73
2022/03/05 01:10:21;;;;;;;7.03;4.93;;;;;;;;;;5061198;28;20020;-76
2022/03/05 01:12:47;;;;;;;6.95;4.10;;;;;;;;;;5057255;28;20032;-74
2022/03/05 01:15:13;;;;;;;6.55;4.35;;;;;;;;;;5061715;28;20694;-74
2022/03/05 01:17:39;;;;;;;5.85;3.95;;;;;;;;;;5056637;28;20025;-74
2022/03/05 01:20:06;;;;;;;8.35;3.80;;;;;;;;;;5050627;28;20036;-77
2022/03/05 01:22:32;;;;;;;4.40;3.53;;;;;;;;;;5063805;28;20066;-74
2022/03/05 01:24:58;;;;;;;6.72;3.15;;;;;;;;;;5057645;28;20108;-74
2022/03/05 01:27:24;;;;;;;4.55;2.90;;;;;;;;;;5058148;28;20031;-74
2022/03/05 01:29:51;;;;;;;5.57;3.15;;;;;;;;;;5058339;28;20021;-75
2022/03/05 01:32:17;;;;;;;4.53;2.95;;;;;;;;;;5059924;28;20092;-75
2022/03/05 01:34:44;;;;;;;8.57;3.15;;;;;;;;;;5057959;28;20086;-74
2022/03/05 01:37:10;;;;;;;6.85;2.90;;;;;;;;;;5058847;28;20074;-75
2022/03/05 01:39:36;;;;;;;4.97;3.22;;;;;;;;;;5066129;28;20051;-74
2022/03/05 01:42:02;;;;;;;6.75;2.67;;;;;;;;;;5061433;28;20593;-73
2022/03/05 01:44:28;;;;;;;5.57;3.10;;;;;;;;;;5068411;28;20021;-76
2022/03/05 01:46:55;;;;;;;3.33;2.70;;;;;;;;;;5060602;28;20021;-75
2022/03/05 01:49:21;;;;;;;4.97;3.03;;;;;;;;;;5063126;28;20393;-74
2022/03/05 01:51:47;;;;;;;6.07;3.17;;;;;;;;;;5066800;28;20028;-74
2022/03/05 01:54:14;;;;;;;5.85;2.95;;;;;;;;;;5065147;28;20031;-74
2022/03/05 01:56:40;;;;;;;6.45;2.83;;;;;;;;;;5063801;28;20025;-74
2022/03/05 01:59:07;;;;;;;8.05;2.72;;;;;;;;;;5062344;28;20064;-74
2022/03/05 02:01:33;;;;;;;4.88;3.17;;;;;;;;;;5064958;28;20123;-74
2022/03/05 02:04:00;;;;;;;5.35;2.80;;;;;;;;;;5062378;28;20569;-75
2022/03/05 02:06:26;;;;;;;5.00;3.10;;;;;;;;;;5067269;28;20043;-75
2022/03/05 02:08:52;;;;;;;4.70;2.90;;;;;;;;;;5063284;28;20055;-75
2022/03/05 02:11:18;;;;;;;4.57;3.20;;;;;;;;;;5064180;28;20557;-74
2022/03/05 02:13:45;;;;;;;6.75;3.25;;;;;;;;;;5059811;28;20013;-77
2022/03/05 02:16:11;;;;;;;5.55;2.90;;;;;;;;;;5065161;28;20035;-74
2022/03/05 02:18:37;;;;;;;6.43;3.42;;;;;;;;;;5059826;28;20024;-74
2022/03/05 02:21:04;;;;;;;5.45;3.72;;;;;;;;;;5064814;28;20055;-74
2022/03/05 02:23:30;;;;;;;5.55;3.35;;;;;;;;;;5058158;28;20055;-74
2022/03/05 02:25:58;;;;;;;5.63;3.30;;;;;;;;;;5057831;28;20017;-76
2022/03/05 02:28:24;;;;;;;3.67;2.75;;;;;;;;;;5060125;28;20586;-76
2022/03/05 02:30:51;;;;;;;5.07;2.83;;;;;;;;;;5057921;28;20047;-74
2022/03/05 02:33:18;;;;;;;6.38;2.90;;;;;;;;;;5062681;28;20026;-76
2022/03/05 02:35:44;;;;;;;5.47;2.85;;;;;;;;;;5059711;28;20025;-79
2022/03/05 02:38:12;;;;;;;4.07;2.92;;;;;;;;;;5065089;28;20029;-75
2022/03/05 02:40:39;;;;;;;4.72;3.10;;;;;;;;;;5061153;28;20033;-74
2022/03/05 02:43:05;;;;;;;5.10;3.22;;;;;;;;;;5063685;28;20032;-74
2022/03/05 02:45:32;;;;;;;5.03;3.08;;;;;;;;;;5061174;28;20025;-75
2022/03/05 02:47:58;;;;;;;5.70;3.33;;;;;;;;;;5060461;28;20032;-73
2022/03/05 02:50:24;;;;;;;3.88;3.28;;;;;;;;;;5066076;28;20013;-74
2022/03/05 02:52:50;;;;;;;6.55;3.30;;;;;;;;;;5063317;28;20048;-75
2022/03/05 02:55:16;;;;;;;5.10;3.08;;;;;;;;;;5069365;28;20035;-73
2022/03/05 02:57:42;;;;;;;5.88;2.83;;;;;;;;;;5064587;28;20047;-75
2022/03/05 03:00:09;;;;;;;5.40;3.05;;;;;;;;;;5062976;28;20025;-75
2022/03/05 03:02:35;;;;;;;3.20;2.30;;;;;;;;;;5057886;28;20055;-74
2022/03/05 03:05:01;;;;;;;4.90;2.33;;;;;;;;;;5062169;28;20107;-74
2022/03/05 03:07:27;;;;;;;3.22;2.22;;;;;;;;;;5060639;28;20036;-75
2022/03/05 03:09:53;;;;;;;3.15;2.38;;;;;;;;;;5062851;28;20412;-74
2022/03/05 03:12:20;;;;;;;3.53;2.53;;;;;;;;;;5061602;28;20021;-74
2022/03/05 03:14:46;;;;;;;4.20;2.72;;;;;;;;;;5060532;28;20032;-74
2022/03/05 03:17:12;;;;;;;3.72;2.88;;;;;;;;;;5062912;28;20032;-75
2022/03/05 03:19:38;;;;;;;3.72;2.63;;;;;;;;;;5059063;28;20045;-75
2022/03/05 03:22:04;;;;;;;5.75;3.08;;;;;;;;;;5067579;28;20049;-74
2022/03/05 03:24:30;;;;;;;5.03;2.80;;;;;;;;;;5062762;28;20664;-74
2022/03/05 03:26:56;;;;;;;3.08;2.60;;;;;;;;;;5062086;28;20036;-74
2022/03/05 03:29:23;;;;;;;4.55;2.78;;;;;;;;;;5059803;28;20013;-74
2022/03/05 03:31:49;;;;;;;5.78;2.95;;;;;;;;;;5060036;28;20069;-75
2022/03/05 03:34:15;;;;;;;3.55;2.80;;;;;;;;;;5057380;28;20218;-74
2022/03/05 03:36:41;;;;;;;4.45;3.20;;;;;;;;;;5058447;28;20516;-74
2022/03/05 03:39:07;;;;;;;5.90;3.22;;;;;;;;;;5061014;28;20029;-74
2022/03/05 03:41:33;;;;;;;7.15;3.38;;;;;;;;;;5053318;28;20036;-76
2022/03/05 03:43:59;;;;;;;3.20;2.90;;;;;;;;;;5059574;28;20025;-74
2022/03/05 03:46:25;;;;;;;4.15;2.95;;;;;;;;;;5061258;28;20021;-75
2022/03/05 03:48:52;;;;;;;6.28;3.25;;;;;;;;;;5060383;28;20029;-76
2022/03/05 03:51:18;;;;;;;6.20;3.50;;;;;;;;;;5064918;28;20039;-76
2022/03/05 03:53:44;;;;;;;6.35;3.70;;;;;;;;;;5065335;28;20029;-75
2022/03/05 03:56:10;;;;;;;5.43;3.42;;;;;;;;;;5061601;28;20028;-76
2022/03/05 03:58:36;;;;;;;6.88;3.75;;;;;;;;;;5057831;28;20017;-75
2022/03/05 04:01:02;;;;;;;10.10;2.53;;;;;;;;;;5059696;28;20025;-75
2022/03/05 04:03:29;;;;;;;11.40;2.55;;;;;;;;;;5052672;28;20025;-75
2022/03/05 04:05:55;;;;;;;12.32;2.70;;;;;;;;;;5050526;28;20028;-73
2022/03/05 04:11:07;;;;;;;8.27;3.63;;;;;;;;;;5064848;28;20086;-76
2022/03/05 04:13:33;;;;;;;6.18;3.30;;;;;;;;;;5062975;28;20028;-75
2022/03/05 04:15:59;;;;;;;8.35;4.00;;;;;;;;;;5062794;28;20021;-73
2022/03/05 04:18:25;;;;;;;7.13;3.38;;;;;;;;;;5051046;28;20021;-74
2022/03/05 04:20:52;;;;;;;12.18;5.18;;;;;;;;;;5060541;28;20098;-74
2022/03/05 04:23:18;;;;;;;8.93;4.10;;;;;;;;;;5064218;28;20063;-74
2022/03/05 04:25:44;;;;;;;7.32;3.25;;;;;;;;;;5066144;28;20040;-74
2022/03/05 04:28:10;;;;;;;7.68;3.95;;;;;;;;;;5065861;28;20029;-75
2022/03/05 04:30:36;;;;;;;13.43;4.25;;;;;;;;;;5064270;28;20020;-76
2022/03/05 04:33:02;;;;;;;8.00;3.92;;;;;;;;;;5065681;28;20059;-75
2022/03/05 04:35:29;;;;;;;5.45;3.47;;;;;;;;;;5064266;28;20323;-76
2022/03/05 04:37:55;;;;;;;8.20;3.92;;;;;;;;;;5062464;28;20047;-75
2022/03/05 04:40:22;;;;;;;6.25;3.40;;;;;;;;;;5058063;28;20031;-75
2022/03/05 04:42:48;;;;;;;4.88;2.80;;;;;;;;;;5059754;28;20032;-76
2022/03/05 04:45:14;;;;;;;4.72;1.80;;;;;;;;;;5060182;28;20020;-76
2022/03/05 04:47:41;;;;;;;3.10;1.60;;;;;;;;;;5058279;28;20033;-76
2022/03/05 04:50:07;;;;;;;7.18;1.98;;;;;;;;;;5059236;28;20860;-76
2022/03/05 04:52:34;;;;;;;13.43;2.95;;;;;;;;;;5058296;28;20070;-75
2022/03/05 04:55:00;;;;;;;3.63;2.17;;;;;;;;;;5059594;28;20206;-76
2022/03/05 04:57:27;;;;;;;2.47;1.70;;;;;;;;;;5059827;28;20379;-76
2022/03/05 04:59:53;;;;;;;4.13;2.17;;;;;;;;;;5058004;28;20048;-76
2022/03/05 05:02:19;;;;;;;3.20;1.90;;;;;;;;;;5058986;28;20039;-75
2022/03/05 05:04:46;;;;;;;4.88;1.90;;;;;;;;;;5059343;28;20523;-76
2022/03/05 05:07:12;;;;;;;2.25;1.90;;;;;;;;;;5059471;28;20039;-76
2022/03/05 05:09:40;;;;;;;3.20;1.73;;;;;;;;;;5059613;28;20024;-76
2022/03/05 05:12:06;;;;;;;5.10;2.88;;;;;;;;;;5056053;28;20066;-76
2022/03/05 05:14:32;;;;;;;3.20;1.83;;;;;;;;;;5058937;28;20035;-75
2022/03/05 05:16:59;;;;;;;3.10;1.65;;;;;;;;;;5058933;28;20050;-76
2022/03/05 05:19:25;;;;;;;1.65;1.33;;;;;;;;;;5059182;28;20033;-76
2022/03/05 05:22:01;;;;;;;3.45;1.58;;;;;;;;;;5055628;28;20515;-76
2022/03/05 05:24:28;;;;;;;2.28;1.50;;;;;;;;;;5059546;28;20063;-75
2022/03/05 05:26:55;;;;;;;3.20;1.35;;;;;;;;;;5059057;28;20035;-76
2022/03/05 05:29:21;;;;;;;5.07;1.38;;;;;;;;;;5059244;28;20420;-75
2022/03/05 05:31:48;;;;;;;2.97;1.25;;;;;;;;;;5057622;28;20051;-76
2022/03/05 05:34:14;;;;;;;3.38;1.52;;;;;;;;;;5059391;28;20345;-76
2022/03/05 05:36:40;;;;;;;3.13;1.10;;;;;;;;;;5058972;28;20317;-77
2022/03/05 05:39:07;;;;;;;3.20;1.20;;;;;;;;;;5058777;28;20495;-76
2022/03/05 05:41:34;;;;;;;3.95;1.25;;;;;;;;;;5057109;28;20071;-77
2022/03/05 05:44:00;;;;;;;4.03;1.17;;;;;;;;;;5057915;28;20024;-75
2022/03/05 05:46:26;;;;;;;3.83;1.58;;;;;;;;;;5058873;28;20314;-76
2022/03/05 05:48:52;;;;;;;4.75;1.20;;;;;;;;;;5057737;28;20537;-76
2022/03/05 05:51:18;;;;;;;4.70;1.20;;;;;;;;;;5057399;28;20361;-75
2022/03/05 05:53:45;;;;;;;5.65;1.30;;;;;;;;;;5060874;28;20017;-76
2022/03/05 05:56:11;;;;;;;4.57;2.20;;;;;;;;;;5061299;28;20027;-75
2022/03/05 05:58:37;;;;;;;3.28;1.90;;;;;;;;;;5059433;28;20028;-76
2022/03/05 06:01:03;;;;;;;3.78;1.85;;;;;;;;;;5061539;28;20071;-75
2022/03/05 06:03:29;;;;;;;3.63;1.67;;;;;;;;;;5060295;28;20400;-76
2022/03/05 06:05:58;;;;;;;5.28;2.33;;;;;;;;;;5057280;28;20032;-75
2022/03/05 06:08:24;;;;;;;4.25;2.63;;;;;;;;;;5058095;28;20031;-76
2022/03/05 06:10:51;;;;;;;6.30;3.10;;;;;;;;;;5058899;28;20024;-75
2022/03/05 06:13:17;;;;;;;3.45;2.00;;;;;;;;;;5058580;28;20460;-75
2022/03/05 06:15:44;;;;;;;2.60;1.60;;;;;;;;;;5058866;28;20028;-75
2022/03/05 06:18:10;;;;;;;2.58;1.10;;;;;;;;;;5056946;28;20032;-75
2022/03/05 06:20:37;;;;;;;3.10;1.27;;;;;;;;;;5058444;28;20045;-76
2022/03/05 06:23:03;;;;;;;2.83;1.20;;;;;;;;;;5058494;28;20391;-75
2022/03/05 06:25:29;;;;;;;4.57;1.17;;;;;;;;;;5057208;28;20031;-76
2022/03/05 06:27:55;;;;;;;3.67;1.40;;;;;;;;;;5058640;28;20101;-75
2022/03/05 06:30:21;;;;;;;2.88;1.48;;;;;;;;;;5062267;28;20028;-76
2022/03/05 06:32:47;;;;;;;7.38;1.60;;;;;;;;;;5058978;28;20024;-75
2022/03/05 06:35:14;;;;;;;2.50;1.42;;;;;;;;;;5061896;28;20032;-76
2022/03/05 06:37:40;;;;;;;8.00;2.50;;;;;;;;;;5061773;28;20024;-76
2022/03/05 06:40:07;;;;;;;2.92;1.20;;;;;;;;;;5060933;28;20617;-76
2022/03/05 06:42:33;;;;;;;4.20;1.45;;;;;;;;;;5061873;28;20032;-75
2022/03/05 06:44:59;;;;;;;8.60;2.63;;;;;;;;;;5061760;28;20104;-75
2022/03/05 06:47:25;;;;;;;7.05;4.30;;;;;;;;;;5060637;28;20496;-77
2022/03/05 06:49:51;;;;;;;7.63;3.88;;;;;;;;;;5061982;28;20032;-76
2022/03/05 06:52:18;;;;;;;5.97;2.88;;;;;;;;;;5061528;28;20027;-75
2022/03/05 06:54:44;;;;;;;6.40;2.78;;;;;;;;;;5061833;28;20027;-77
2022/03/05 06:57:10;;;;;;;7.40;2.33;;;;;;;;;;5060866;28;20032;-75
2022/03/05 06:59:36;;;;;;;10.90;4.65;;;;;;;;;;5061724;28;20035;-75
2022/03/05 07:02:02;;;;;;;10.23;4.60;;;;;;;;;;5061672;28;20107;-74
2022/03/05 07:04:28;;;;;;;6.80;2.45;;;;;;;;;;5061338;28;20492;-75
2022/03/05 07:06:55;;;;;;;4.60;1.80;;;;;;;;;;5061651;28;20490;-76
2022/03/05 07:09:21;;;;;;;6.53;2.13;;;;;;;;;;5058399;28;20578;-76
2022/03/05 07:11:47;;;;;;;2.45;1.88;;;;;;;;;;5058248;28;20032;-74
2022/03/05 07:14:13;;;;;;;7.53;1.90;;;;;;;;;;5060101;28;20024;-76
2022/03/05 07:16:39;;;;;;;4.57;1.83;;;;;;;;;;5051847;28;20039;-75
2022/03/05 07:19:05;;;;;;;3.33;1.60;;;;;;;;;;5061888;28;20099;-76
2022/03/05 07:21:31;;;;;;;4.32;1.90;;;;;;;;;;5057968;28;20088;-78
2022/03/05 07:24:02;;;;;;;6.15;2.35;;;;;;;;;;5061392;28;20307;-76
2022/03/05 07:26:28;;;;;;;3.15;1.48;;;;;;;;;;5059436;28;20039;-76
2022/03/05 07:28:54;;;;;;;2.42;1.50;;;;;;;;;;5060885;28;20223;-76
2022/03/05 07:31:20;;;;;;;2.95;1.23;;;;;;;;;;5060440;28;20511;-79
2022/03/05 07:33:47;;;;;;;3.65;1.33;;;;;;;;;;5060666;28;20047;-76
2022/03/05 07:36:13;;;;;;;3.10;1.67;;;;;;;;;;5063947;28;20029;-75
2022/03/05 07:38:43;;;;;;;4.82;1.70;;;;;;;;;;5063120;28;20020;-76
2022/03/05 07:41:09;;;;;;;6.70;1.85;;;;;;;;;;5062033;28;20661;-76
2022/03/05 07:43:35;;;;;;;2.70;1.67;;;;;;;;;;5063388;28;20016;-75
2022/03/05 07:46:01;;;;;;;5.72;1.30;;;;;;;;;;5063524;28;20410;-77
2022/03/05 07:48:27;;;;;;;5.40;1.80;;;;;;;;;;5061481;28;20050;-76
2022/03/05 07:50:54;;;;;;;5.15;1.63;;;;;;;;;;5063090;28;20492;-77
2022/03/05 07:53:20;;;;;;;6.13;1.98;;;;;;;;;;5063198;28;20678;-77
2022/03/05 07:55:47;;;;;;;7.47;3.80;;;;;;;;;;5062777;28;20025;-74
2022/03/05 07:58:13;;;;;;;14.65;8.82;;;;;;;;;;5062884;28;20112;-75
2022/03/05 08:00:39;;;;;;;9.25;4.15;;;;;;;;;;5062038;28;20033;-74
2022/03/05 08:03:05;;;;;;;9.98;2.75;;;;;;;;;;5048958;28;20032;-76
2022/03/05 08:05:31;;;;;;;6.88;2.40;;;;;;;;;;5060862;28;20085;-75
2022/03/05 08:07:57;;;;;;;6.88;3.72;;;;;;;;;;5060825;28;20483;-77
2022/03/05 08:10:23;;;;;;;3.90;2.00;;;;;;;;;;5060730;28;20487;-75
2022/03/05 08:12:50;;;;;;;6.65;2.55;;;;;;;;;;5058892;28;20056;-76
2022/03/05 08:15:16;;;;;;;3.70;2.33;;;;;;;;;;5058534;28;20395;-75
2022/03/05 08:17:55;;;;;;;7.55;3.85;;;;;;;;;;5060667;28;20036;-78
2022/03/05 08:20:22;;;;;;;3.88;2.13;;;;;;;;;;5060054;28;20237;-75
2022/03/05 08:22:48;;;;;;;2.90;1.33;;;;;;;;;;5058840;28;20119;-75
2022/03/05 08:25:15;;;;;;;4.10;1.90;;;;;;;;;;5060079;28;20190;-76
2022/03/05 08:27:41;;;;;;;3.55;2.67;;;;;;;;;;5058956;28;20116;-75
2022/03/05 08:30:07;;;;;;;6.55;4.32;;;;;;;;;;5059875;28;20029;-76
2022/03/05 08:32:33;;;;;;;6.18;5.60;;;;;;;;;;5058090;28;20060;-76
2022/03/05 08:35:00;;;;;;;11.85;8.30;;;;;;;;;;5061585;28;20040;-77
2022/03/05 08:37:27;;;;;;;11.45;5.80;;;;;;;;;;5058262;28;20440;-77
2022/03/05 08:39:53;;;;;;;6.55;4.18;;;;;;;;;;5038505;28;20021;-77
2022/03/05 08:42:20;;;;;;;5.82;2.58;;;;;;;;;;5040265;28;20497;-79
2022/03/05 08:44:46;;;;;;;3.03;1.70;;;;;;;;;;5042021;28;20025;-79
2022/03/05 08:47:13;;;;;;;4.80;1.88;;;;;;;;;;5059803;28;20039;-78
2022/03/05 08:49:39;;;;;;;2.28;1.70;;;;;;;;;;5058314;28;20024;-77
2022/03/05 08:52:06;;;;;;;2.08;1.63;;;;;;;;;;5058002;28;20430;-79
2022/03/05 08:54:32;;;;;;;5.57;1.65;;;;;;;;;;5059664;28;20032;-78
2022/03/05 08:56:58;;;;;;;2.65;1.77;;;;;;;;;;5038238;28;20024;-80
2022/03/05 08:59:24;;;;;;;6.65;4.72;;;;;;;;;;5045590;28;20024;-78
2022/03/05 09:01:51;;;;;;;2.45;1.70;;;;;;;;;;5059608;28;20441;-79
2022/03/05 09:04:17;;;;;;;5.47;2.40;;;;;;;;;;5059345;28;20056;-77
2022/03/05 09:06:43;;;;;;;9.18;6.50;;;;;;;;;;5059926;28;20555;-77
2022/03/05 09:09:09;;;;;;;3.10;1.90;;;;;;;;;;5058240;28;20103;-78
2022/03/05 09:11:37;;;;;;;3.88;2.75;;;;;;;;;;5058342;28;20060;-80
2022/03/05 09:14:07;;;;;;;2.17;1.38;;;;;;;;;;5059453;28;20031;-79
2022/03/05 09:16:36;;;;;;;2.83;1.50;;;;;;;;;;5058949;28;20033;-79
2022/03/05 09:19:02;;;;;;;3.15;2.45;;;;;;;;;;5059265;28;20375;-78
2022/03/05 09:21:29;;;;;;;2.65;1.80;;;;;;;;;;5059517;28;20282;-78
2022/03/05 09:23:58;;;;;;;3.60;1.48;;;;;;;;;;5059260;28;20122;-79
2022/03/05 09:26:24;;;;;;;2.30;1.40;;;;;;;;;;5055654;28;20037;-78
2022/03/05 09:28:50;;;;;;;8.50;1.60;;;;;;;;;;5058987;28;20021;-79
2022/03/05 09:31:17;;;;;;;2.85;1.50;;;;;;;;;;5057485;28;20020;-79
2022/03/05 09:33:43;;;;;;;5.40;1.52;;;;;;;;;;5059330;28;20107;-78
2022/03/05 09:36:10;;;;;;;3.60;1.67;;;;;;;;;;5058123;28;20107;-79
2022/03/05 09:38:39;;;;;;;2.92;1.58;;;;;;;;;;5057595;28;20032;-80
2022/03/05 09:41:06;;;;;;;5.22;1.60;;;;;;;;;;5059289;28;20116;-78
2022/03/05 09:43:33;;;;;;;4.03;1.50;;;;;;;;;;5058908;28;20472;-77
2022/03/05 09:45:59;;;;;;;3.88;1.60;;;;;;;;;;5060768;28;20020;-77
2022/03/05 09:48:27;;;;;;;1.98;1.35;;;;;;;;;;5060281;28;20025;-78
2022/03/05 09:50:53;;;;;;;3.92;2.47;;;;;;;;;;5061542;28;20020;-77
2022/03/05 09:53:20;;;;;;;4.38;2.53;;;;;;;;;;5060335;28;20029;-78
2022/03/05 09:55:50;;;;;;;1.60;1.20;;;;;;;;;;5057848;28;20031;-78
2022/03/05 09:58:17;;;;;;;3.20;1.30;;;;;;;;;;5059211;28;20052;-77
2022/03/05 10:00:44;;;;;;;3.70;1.92;;;;;;;;;;5058826;28;20522;-78
2022/03/05 10:03:14;;;;;;;2.55;1.40;;;;;;;;;;5054410;28;20075;-81
2022/03/05 10:05:40;;;;;;;2.42;1.40;;;;;;;;;;5064549;28;20107;-79
2022/03/05 10:08:08;;;;;;;2.35;1.42;;;;;;;;;;5062247;28;20267;-77
2022/03/05 10:10:45;;;;;;;3.17;1.30;;;;;;;;;;5065597;28;20027;-85
2022/03/05 10:13:31;;;;;;;4.65;2.50;;;;;;;;;;5065810;28;20059;-77
2022/03/05 10:15:59;;;;;;;4.13;2.38;;;;;;;;;;5063309;28;20251;-77
2022/03/05 10:18:28;;;;;;;2.38;1.40;;;;;;;;;;5064763;28;20020;-76
2022/03/05 10:20:54;;;;;;;5.25;1.60;;;;;;;;;;5062875;28;20072;-76
2022/03/05 10:23:21;;;;;;;3.95;1.25;;;;;;;;;;5064267;28;20031;-79
2022/03/05 10:25:48;;;;;;;3.35;1.42;;;;;;;;;;5062065;28;20020;-78
2022/03/05 10:28:20;;;;;;;2.17;1.27;;;;;;;;;;5063589;28;20543;-78
2022/03/05 10:30:47;;;;;;;3.72;1.67;;;;;;;;;;5062994;28;20052;-77
2022/03/05 10:33:26;;;;;;;3.17;1.60;;;;;;;;;;5053904;28;20556;-76
2022/03/05 10:35:53;;;;;;;3.08;1.40;;;;;;;;;;5061282;28;20483;-76
2022/03/05 10:38:19;;;;;;;3.75;2.00;;;;;;;;;;5063081;28;20028;-76
2022/03/05 10:40:52;;;;;;;3.20;1.80;;;;;;;;;;5063617;28;20434;-77
2022/03/05 10:43:19;;;;;;;2.90;1.55;;;;;;;;;;5062417;28;20045;-75
2022/03/05 10:45:52;;;;;;;4.75;1.95;;;;;;;;;;5063018;28;20023;-75
2022/03/05 10:48:26;;;;;;;2.53;1.70;;;;;;;;;;5063100;28;20369;-77
2022/03/05 10:51:03;;;;;;;4.50;1.88;;;;;;;;;;5061743;28;20025;-75
2022/03/05 10:53:46;;;;;;;3.58;1.67;;;;;;;;;;5061279;28;20701;-74
2022/03/05 10:56:24;;;;;;;3.75;2.15;;;;;;;;;;5062404;28;20472;-77
2022/03/05 10:59:22;;;;;;;5.78;1.58;;;;;;;;;;5063409;28;20021;-77
2022/03/05 11:01:48;;;;;;;4.38;1.77;;;;;;;;;;5059066;28;20052;-74
2022/03/05 11:04:14;;;;;;;3.55;1.92;;;;;;;;;;5063770;28;20024;-76
2022/03/05 11:06:42;;;;;;;3.03;1.85;;;;;;;;;;5059857;28;20471;-77
2022/03/05 11:09:09;;;;;;;5.38;3.85;;;;;;;;;;5064506;28;20372;-78
2022/03/05 11:11:37;;;;;;;5.97;3.22;;;;;;;;;;5064017;28;20103;-76
2022/03/05 11:14:03;;;;;;;5.43;3.65;;;;;;;;;;5063995;28;20021;-76
2022/03/05 11:16:30;;;;;;;6.50;4.93;;;;;;;;;;5064050;28;20438;-76
2022/03/05 11:18:57;;;;;;;4.05;2.97;;;;;;;;;;5062553;28;20017;-78
2022/03/05 11:21:25;;;;;;;2.53;2.08;;;;;;;;;;5064236;28;20484;-76
2022/03/05 11:23:51;;;;;;;2.90;1.70;;;;;;;;;;5063927;28;20024;-76
2022/03/05 11:26:18;;;;;;;2.03;1.70;;;;;;;;;;5064011;28;20040;-77
2022/03/05 11:28:48;;;;;;;3.35;1.60;;;;;;;;;;5063945;28;20035;-77
2022/03/05 11:31:18;;;;;;;2.45;1.77;;;;;;;;;;5063637;28;20091;-76
2022/03/05 11:33:45;;;;;;;5.85;2.13;;;;;;;;;;5062633;28;20100;-79
2022/03/05 11:36:31;;;;;;;6.47;2.42;;;;;;;;;;5063850;28;20032;-76
2022/03/05 11:39:09;;;;;;;5.28;2.47;;;;;;;;;;5063879;28;20476;-76
2022/03/05 11:42:01;;;;;;;5.22;2.92;;;;;;;;;;5063906;28;20074;-77
2022/03/05 11:44:28;;;;;;;5.00;3.05;;;;;;;;;;5059450;28;20033;-77
2022/03/05 11:47:13;;;;;;;5.93;2.38;;;;;;;;;;5059514;28;20055;-77
2022/03/05 11:49:52;;;;;;;3.38;2.65;;;;;;;;;;5062615;28;20043;-76
2022/03/05 11:52:18;;;;;;;4.10;2.20;;;;;;;;;;5063269;28;20542;-76
2022/03/05 11:55:04;;;;;;;3.40;2.53;;;;;;;;;;5063990;28;20073;-75
2022/03/05 11:57:30;;;;;;;3.35;2.15;;;;;;;;;;5062090;28;20376;-76
2022/03/05 12:00:03;;;;;;;4.03;2.22;;;;;;;;;;5061777;28;20024;-76
2022/03/05 12:02:41;;;;;;;5.25;2.25;;;;;;;;;;5062046;28;20068;-78
2022/03/05 12:05:08;;;;;;;3.30;2.22;;;;;;;;;;5061995;28;20415;-78
2022/03/05 12:07:38;;;;;;;5.50;2.38;;;;;;;;;;5063332;28;20082;-78
2022/03/05 12:10:14;;;;;;;6.78;2.85;;;;;;;;;;5061986;28;20020;-76
2022/03/05 12:13:00;;;;;;;5.00;2.58;;;;;;;;;;5063080;28;20498;-78
2022/03/05 12:15:33;;;;;;;5.38;2.50;;;;;;;;;;5062992;28;20056;-76
2022/03/05 12:18:03;;;;;;;4.88;2.47;;;;;;;;;;5063068;28;20478;-76
2022/03/05 12:20:32;;;;;;;6.68;2.45;;;;;;;;;;5062903;28;20056;-76
2022/03/05 12:23:00;;;;;;;8.23;3.92;;;;;;;;;;5061696;28;20033;-76
2022/03/05 12:25:27;;;;;;;4.70;3.60;;;;;;;;;;5063157;28;20100;-77
2022/03/05 12:27:54;;;;;;;5.88;3.60;;;;;;;;;;5062121;28;20032;-76
2022/03/05 12:30:22;;;;;;;6.28;3.95;;;;;;;;;;5062582;28;20042;-76
2022/03/05 12:32:48;;;;;;;10.52;3.20;;;;;;;;;;5062661;28;20103;-77
2022/03/05 12:35:16;;;;;;;5.38;2.70;;;;;;;;;;5061323;28;20024;-78
2022/03/05 12:37:43;;;;;;;7.03;2.67;;;;;;;;;;5062749;28;20560;-77
2022/03/05 12:40:09;;;;;;;5.47;3.40;;;;;;;;;;5062265;28;20024;-76
2022/03/05 12:42:44;;;;;;;7.10;3.10;;;;;;;;;;5062300;28;20052;-79
2022/03/05 12:45:23;;;;;;;6.22;3.40;;;;;;;;;;5059597;28;20032;-76
2022/03/05 12:47:50;;;;;;;4.35;2.67;;;;;;;;;;5061006;28;20020;-76
2022/03/05 12:50:22;;;;;;;4.45;2.63;;;;;;;;;;5062151;28;20017;-76
2022/03/05 12:52:54;;;;;;;4.30;3.22;;;;;;;;;;5062304;28;20059;-77
2022/03/05 12:55:21;;;;;;;4.50;2.70;;;;;;;;;;5062478;28;20035;-77
2022/03/05 12:57:47;;;;;;;6.43;3.25;;;;;;;;;;5061873;28;20065;-76
2022/03/05 13:00:13;;;;;;;9.32;3.35;;;;;;;;;;5061300;28;20033;-76
2022/03/05 13:02:40;;;;;;;8.07;3.63;;;;;;;;;;5061891;28;20032;-77
2022/03/05 13:05:16;;;;;;;5.50;3.30;;;;;;;;;;5061540;28;20572;-75
2022/03/05 13:07:42;;;;;;;5.63;3.00;;;;;;;;;;5060922;28;20021;-76
2022/03/05 13:10:09;;;;;;;7.70;2.95;;;;;;;;;;5063332;28;20025;-77
2022/03/05 13:12:38;;;;;;;7.05;3.13;;;;;;;;;;5065294;28;20039;-76
2022/03/05 13:15:05;;;;;;;5.68;2.80;;;;;;;;;;5065392;28;20074;-75
2022/03/05 13:17:31;;;;;;;6.18;2.80;;;;;;;;;;5064017;28;20452;-76
2022/03/05 13:20:05;;;;;;;5.55;3.08;;;;;;;;;;5065446;28;20012;-77
2022/03/05 13:22:31;;;;;;;7.35;2.97;;;;;;;;;;5063805;28;20054;-76
2022/03/05 13:24:57;;;;;;;4.68;3.05;;;;;;;;;;5065465;28;20040;-76
2022/03/05 13:27:27;;;;;;;7.90;4.35;;;;;;;;;;5065082;28;20028;-76
2022/03/05 13:29:54;;;;;;;6.03;3.88;;;;;;;;;;5064065;28;20082;-76
2022/03/05 13:32:24;;;;;;;6.95;4.35;;;;;;;;;;5063962;28;20017;-79
2022/03/05 13:35:01;;;;;;;7.00;3.90;;;;;;;;;;5063635;28;20021;-78
2022/03/05 13:37:27;;;;;;;8.05;5.28;;;;;;;;;;5065969;28;20021;-77
2022/03/05 13:39:54;;;;;;;7.68;4.05;;;;;;;;;;5068724;28;20025;-75
2022/03/05 13:42:20;;;;;;;4.35;3.05;;;;;;;;;;5069189;28;20059;-76
2022/03/05 13:44:46;;;;;;;5.25;2.97;;;;;;;;;;5069196;28;20024;-77
2022/03/05 13:47:12;;;;;;;3.50;2.97;;;;;;;;;;5067520;28;20033;-76
2022/03/05 13:49:43;;;;;;;6.00;3.10;;;;;;;;;;5069220;28;20027;-75
2022/03/05 13:52:17;;;;;;;5.75;3.35;;;;;;;;;;5068903;28;20016;-78
2022/03/05 13:54:44;;;;;;;4.90;2.72;;;;;;;;;;5067398;28;20108;-76
2022/03/05 13:57:25;;;;;;;5.68;2.67;;;;;;;;;;5067627;28;20082;-77
2022/03/05 13:59:51;;;;;;;7.90;3.58;;;;;;;;;;5068740;28;20521;-76
2022/03/05 14:02:17;;;;;;;9.50;3.33;;;;;;;;;;5067280;28;20033;-77
2022/03/05 14:04:56;;;;;;;5.93;2.72;;;;;;;;;;5068696;28;20430;-75
2022/03/05 14:07:22;;;;;;;11.23;3.92;;;;;;;;;;5069015;28;20445;-78
2022/03/05 14:09:48;;;;;;;7.45;3.50;;;;;;;;;;5068580;28;20017;-77
2022/03/05 14:12:16;;;;;;;6.20;3.88;;;;;;;;;;5068304;28;20047;-76
2022/03/05 14:14:59;;;;;;;6.32;3.85;;;;;;;;;;5068319;28;20187;-76
2022/03/05 14:17:29;;;;;;;7.53;4.22;;;;;;;;;;5067005;28;20027;-78
2022/03/05 14:20:14;;;;;;;5.65;4.45;;;;;;;;;;5068447;28;20056;-77
2022/03/05 14:22:41;;;;;;;5.95;3.75;;;;;;;;;;5068317;28;20577;-77
2022/03/05 14:25:13;;;;;;;8.20;3.30;;;;;;;;;;5066784;28;20070;-76
2022/03/05 14:27:39;;;;;;;6.45;3.08;;;;;;;;;;5068305;28;20020;-77
2022/03/05 14:30:05;;;;;;;9.27;3.45;;;;;;;;;;5068157;28;20016;-76
2022/03/05 14:32:31;;;;;;;4.72;2.97;;;;;;;;;;5068365;28;20027;-76
2022/03/05 14:34:57;;;;;;;6.40;2.95;;;;;;;;;;5067982;28;20028;-77
2022/03/05 14:37:23;;;;;;;7.38;3.70;;;;;;;;;;5068217;28;20033;-76
2022/03/05 14:39:50;;;;;;;6.75;3.30;;;;;;;;;;5066551;28;20081;-76
2022/03/05 14:42:16;;;;;;;6.32;3.22;;;;;;;;;;5068252;28;20085;-76
2022/03/05 14:44:42;;;;;;;6.15;3.42;;;;;;;;;;5066747;28;20108;-79
2022/03/05 14:47:08;;;;;;;6.55;3.83;;;;;;;;;;5067702;28;20044;-76
2022/03/05 14:49:35;;;;;;;5.47;4.20;;;;;;;;;;5066140;28;20016;-78